Time;durP1;ratioP1;P1;durP2;ratioP2;P2;SDS_P1;SDS_P2;PMS_P1;PMS_P2;Temp;Humidity;BMP_temperature;BMP_pressure;BME280_temperature;BME280_humidity;BME280_pressure;Samples;Min_cycle;Max_cycle;Signal;HPM_P1;HPM_P2
2023/08/31 00:01:03;;;;;;;4.75;4.25;;;;;;;11.66;100.00;100787.38;5051217;28;20421;-49
2023/08/31 00:03:29;;;;;;;6.18;4.00;;;;;;;11.64;100.00;100786.66;5046767;28;20466;-50
2023/08/31 00:05:54;;;;;;;6.05;4.10;;;;;;;11.59;100.00;100784.38;5042843;28;20029;-50
2023/08/31 00:08:22;;;;;;;6.95;4.35;;;;;;;11.57;100.00;100786.31;5043488;28;20468;-50
2023/08/31 00:10:54;;;;;;;5.32;4.32;;;;;;;11.55;100.00;100788.25;5051846;28;20676;-50
2023/08/31 00:13:20;;;;;;;7.05;4.40;;;;;;;11.54;100.00;100788.38;5043202;28;20033;-51
2023/08/31 00:15:46;;;;;;;7.03;4.43;;;;;;;11.51;100.00;100786.81;5047169;28;20025;-50
2023/08/31 00:18:12;;;;;;;4.55;4.15;;;;;;;11.48;100.00;100787.06;5041999;28;20463;-51
2023/08/31 00:20:38;;;;;;;6.88;4.40;;;;;;;11.44;100.00;100785.63;5048819;28;20112;-50
2023/08/31 00:23:03;;;;;;;4.97;4.38;;;;;;;11.43;100.00;100787.44;5044732;28;20113;-50
2023/08/31 00:25:29;;;;;;;6.45;4.32;;;;;;;11.41;100.00;100788.53;5047733;28;20017;-49
2023/08/31 00:27:54;;;;;;;7.20;4.63;;;;;;;11.41;100.00;100785.88;5050836;28;20056;-50
2023/08/31 00:30:20;;;;;;;5.78;4.82;;;;;;;11.37;100.00;100787.09;5046488;28;20032;-49
2023/08/31 00:32:47;;;;;;;6.20;4.60;;;;;;;11.30;100.00;100779.59;5053992;28;20032;-51
2023/08/31 00:35:12;;;;;;;7.43;5.18;;;;;;;11.28;100.00;100786.88;5042175;28;20028;-50
2023/08/31 00:37:38;;;;;;;7.45;5.35;;;;;;;11.30;100.00;100784.09;5043776;28;20030;-49
2023/08/31 00:40:04;;;;;;;6.93;5.50;;;;;;;11.25;100.00;100780.94;5046902;28;20036;-51
2023/08/31 00:42:30;;;;;;;5.72;5.10;;;;;;;11.23;100.00;100783.72;5050897;28;20048;-50
2023/08/31 00:44:56;;;;;;;7.43;5.20;;;;;;;11.16;100.00;100773.69;5049950;28;20025;-50
2023/08/31 00:47:21;;;;;;;5.90;5.25;;;;;;;11.19;100.00;100781.44;5050417;28;20186;-50
2023/08/31 00:49:47;;;;;;;7.90;5.32;;;;;;;11.19;100.00;100784.97;5046689;28;20033;-50
2023/08/31 00:52:13;;;;;;;7.78;5.35;;;;;;;11.16;100.00;100779.88;5050680;28;20025;-50
2023/08/31 00:54:38;;;;;;;6.30;5.32;;;;;;;11.12;100.00;100781.09;5058239;28;20396;-51
2023/08/31 00:57:04;;;;;;;6.85;5.07;;;;;;;11.10;100.00;100791.00;5052593;28;20163;-52
2023/08/31 00:59:29;;;;;;;5.50;4.90;;;;;;;11.08;100.00;100785.81;5044823;28;20387;-50
2023/08/31 01:02:23;;;;;;;5.90;5.30;;;;;;;11.06;100.00;100778.94;5043534;28;20436;-49
2023/08/31 01:05:02;;;;;;;6.20;5.05;;;;;;;11.00;100.00;100782.91;5041991;28;20105;-50
2023/08/31 01:07:40;;;;;;;6.22;5.28;;;;;;;11.01;100.00;100783.78;5047493;28;20151;-50
2023/08/31 01:10:33;;;;;;;7.10;5.20;;;;;;;11.00;100.00;100780.25;5045113;28;20036;-52
2023/08/31 01:13:03;;;;;;;8.50;5.00;;;;;;;10.93;100.00;100771.91;5045752;28;20025;-50
2023/08/31 01:15:31;;;;;;;5.50;4.78;;;;;;;10.90;100.00;100777.47;5048632;28;20035;-51
2023/08/31 01:18:00;;;;;;;5.50;5.00;;;;;;;10.88;100.00;100776.75;5047049;28;20450;-50
2023/08/31 01:20:51;;;;;;;6.95;5.03;;;;;;;10.87;100.00;100777.72;5035157;28;20075;-49
2023/08/31 01:23:19;;;;;;;5.78;5.05;;;;;;;10.83;100.00;100772.78;5044629;28;20026;-49
2023/08/31 01:25:48;;;;;;;6.27;5.67;;;;;;;10.80;100.00;100770.38;5047225;28;20548;-51
2023/08/31 01:28:13;;;;;;;8.30;5.93;;;;;;;10.77;100.00;100779.41;5047253;28;20294;-50
2023/08/31 01:30:39;;;;;;;6.80;5.28;;;;;;;10.77;100.00;100782.06;5047994;28;20033;-50
2023/08/31 01:33:04;;;;;;;7.97;5.65;;;;;;;10.72;100.00;100785.09;5049036;28;20052;-50
2023/08/31 01:35:43;;;;;;;7.07;5.72;;;;;;;10.73;100.00;100784.13;5057299;28;20483;-49
2023/08/31 01:38:10;;;;;;;6.82;5.18;;;;;;;10.68;100.00;100785.47;5046969;28;20021;-49
2023/08/31 01:40:59;;;;;;;6.47;5.50;;;;;;;10.66;100.00;100782.91;5045147;28;20490;-51
2023/08/31 01:43:27;;;;;;;7.07;6.30;;;;;;;10.64;100.00;100786.63;5048994;28;20124;-50
2023/08/31 01:45:53;;;;;;;9.10;6.25;;;;;;;10.63;100.00;100792.94;5056381;28;20048;-51
2023/08/31 01:48:18;;;;;;;9.18;6.30;;;;;;;10.62;100.00;100792.06;5052585;28;20025;-50
2023/08/31 01:50:44;;;;;;;7.20;6.50;;;;;;;10.60;100.00;100795.81;5053544;28;20479;-50
2023/08/31 01:53:09;;;;;;;11.30;6.75;;;;;;;10.60;100.00;100798.50;5050037;28;20029;-50
2023/08/31 01:55:35;;;;;;;7.38;6.65;;;;;;;10.60;100.00;100790.50;5045720;28;20034;-49
2023/08/31 01:58:00;;;;;;;7.93;7.03;;;;;;;10.59;100.00;100788.81;5051440;28;20050;-49
2023/08/31 02:00:26;;;;;;;8.50;7.45;;;;;;;10.59;100.00;100788.81;5048465;28;20147;-49
2023/08/31 02:02:51;;;;;;;8.85;7.28;;;;;;;10.59;100.00;100795.00;5047373;28;20561;-49
2023/08/31 02:05:17;;;;;;;8.30;7.32;;;;;;;10.61;100.00;100794.84;5056400;28;20079;-50
2023/08/31 02:07:42;;;;;;;8.95;7.22;;;;;;;10.63;100.00;100798.25;5055345;28;20057;-50
2023/08/31 02:10:08;;;;;;;9.27;7.85;;;;;;;10.66;100.00;100800.69;5056010;28;20039;-50
2023/08/31 02:12:33;;;;;;;8.70;7.63;;;;;;;10.67;100.00;100802.34;5046214;28;20112;-50
2023/08/31 02:14:59;;;;;;;8.63;7.43;;;;;;;10.67;100.00;100800.53;5048620;28;20083;-49
2023/08/31 02:17:25;;;;;;;8.35;7.53;;;;;;;10.70;100.00;100813.56;5055013;28;20025;-50
2023/08/31 02:19:50;;;;;;;9.75;7.90;;;;;;;10.70;100.00;100808.25;5052463;28;20066;-50
2023/08/31 02:22:16;;;;;;;10.43;8.30;;;;;;;10.72;100.00;100800.19;5054709;28;20075;-50
2023/08/31 02:24:41;;;;;;;9.75;8.05;;;;;;;10.72;100.00;100797.53;5050614;28;20025;-49
2023/08/31 02:27:06;;;;;;;9.13;8.10;;;;;;;10.77;100.00;100797.16;5044739;28;20053;-51
2023/08/31 02:29:32;;;;;;;10.90;8.02;;;;;;;10.78;100.00;100796.22;5047411;28;20033;-50
2023/08/31 02:31:57;;;;;;;11.20;7.80;;;;;;;10.79;100.00;100798.75;5051581;28;20352;-50
2023/08/31 02:34:22;;;;;;;9.25;7.80;;;;;;;10.82;100.00;100798.47;5049633;28;20060;-50
2023/08/31 02:36:48;;;;;;;11.00;8.48;;;;;;;10.83;100.00;100794.88;5046486;28;20013;-51
2023/08/31 02:39:13;;;;;;;11.38;8.13;;;;;;;10.82;100.00;100790.50;5051441;28;20490;-49
2023/08/31 02:41:38;;;;;;;9.98;8.38;;;;;;;10.82;100.00;100801.16;5059376;28;20482;-49
2023/08/31 02:44:04;;;;;;;11.38;10.18;;;;;;;10.81;100.00;100804.78;5044873;28;20056;-50
2023/08/31 02:46:29;;;;;;;14.00;11.20;;;;;;;10.78;100.00;100799.72;5048006;28;20033;-50
2023/08/31 02:48:55;;;;;;;14.10;12.23;;;;;;;10.77;100.00;100798.00;5052115;28;20024;-50
2023/08/31 02:51:20;;;;;;;16.95;13.77;;;;;;;10.77;100.00;100803.31;5047586;28;20099;-49
2023/08/31 02:53:45;;;;;;;20.38;16.35;;;;;;;10.75;100.00;100799.94;5053394;28;20025;-50
2023/08/31 02:56:11;;;;;;;21.15;16.85;;;;;;;10.75;100.00;100799.94;5052009;28;20017;-51
2023/08/31 02:58:36;;;;;;;20.80;17.35;;;;;;;10.73;100.00;100801.88;5043421;28;20021;-50
2023/08/31 03:01:12;;;;;;;21.42;18.00;;;;;;;10.70;100.00;100792.31;5051271;28;20021;-51
2023/08/31 03:03:38;;;;;;;19.40;17.30;;;;;;;10.69;100.00;100795.09;5049716;28;20106;-51
2023/08/31 03:06:06;;;;;;;19.83;16.73;;;;;;;10.64;100.00;100803.44;5050693;28;20032;-49
2023/08/31 03:08:31;;;;;;;18.75;16.80;;;;;;;10.65;100.00;100805.13;5046288;28;20086;-49
2023/08/31 03:10:57;;;;;;;18.17;16.27;;;;;;;10.63;100.00;100795.59;5052094;28;20021;-50
2023/08/31 03:13:23;;;;;;;17.30;15.43;;;;;;;10.64;100.00;100797.28;5048450;28;20024;-50
2023/08/31 03:15:48;;;;;;;18.52;16.40;;;;;;;10.62;100.00;100791.25;5054964;28;20032;-50
2023/08/31 03:18:13;;;;;;;17.23;15.38;;;;;;;10.61;100.00;100800.16;5050871;28;20103;-49
2023/08/31 03:20:38;;;;;;;17.52;14.57;;;;;;;10.59;100.00;100802.09;5044452;28;20028;-50
2023/08/31 03:23:04;;;;;;;14.88;13.00;;;;;;;10.57;100.00;100804.88;5051300;28;20033;-50
2023/08/31 03:25:29;;;;;;;14.20;12.80;;;;;;;10.58;100.00;100811.03;5047206;28;20036;-50
2023/08/31 03:27:55;;;;;;;14.98;12.30;;;;;;;10.54;100.00;100811.28;5041551;28;20025;-50
2023/08/31 03:30:20;;;;;;;13.40;11.82;;;;;;;10.54;100.00;100810.41;5054905;28;20028;-50
2023/08/31 03:32:45;;;;;;;14.70;13.20;;;;;;;10.53;100.00;100812.22;5046211;28;20079;-50
2023/08/31 03:35:11;;;;;;;15.30;13.70;;;;;;;10.51;100.00;100811.50;5044526;28;20508;-50
2023/08/31 03:37:37;;;;;;;15.27;13.68;;;;;;;10.49;100.00;100815.22;5047086;28;20032;-50
2023/08/31 03:40:04;;;;;;;17.98;16.13;;;;;;;10.48;100.00;100805.59;5045523;28;21529;-50
2023/08/31 03:42:29;;;;;;;19.17;17.13;;;;;;;10.45;100.00;100809.31;5046163;28;20422;-50
2023/08/31 03:44:54;;;;;;;21.27;18.35;;;;;;;10.47;100.00;100807.38;5047109;28;20023;-50
2023/08/31 03:47:20;;;;;;;21.77;19.45;;;;;;;10.46;100.00;100800.41;5049223;28;20120;-51
2023/08/31 03:49:45;;;;;;;21.65;19.40;;;;;;;10.45;100.00;100798.69;5044729;28;20099;-49
2023/08/31 03:52:10;;;;;;;24.50;20.13;;;;;;;10.44;100.00;100799.69;5044322;28;20108;-49
2023/08/31 03:54:36;;;;;;;22.05;19.58;;;;;;;10.44;100.00;100790.84;5048339;28;20025;-50
2023/08/31 03:57:01;;;;;;;24.05;21.33;;;;;;;10.42;100.00;100790.97;5044846;28;20033;-50
2023/08/31 03:59:27;;;;;;;22.80;20.33;;;;;;;10.41;100.00;100796.38;5043761;28;20067;-50
2023/08/31 04:01:52;;;;;;;24.17;21.23;;;;;;;10.40;100.00;100792.91;5044644;28;20030;-50
2023/08/31 04:04:17;;;;;;;22.77;20.35;;;;;;;10.40;100.00;100800.03;5046891;28;20024;-50
2023/08/31 04:06:43;;;;;;;21.92;19.40;;;;;;;10.36;100.00;100800.25;5045306;28;20029;-50
2023/08/31 04:09:08;;;;;;;21.98;19.58;;;;;;;10.36;100.00;100800.25;5045408;28;20082;-51
2023/08/31 04:11:33;;;;;;;22.02;18.77;;;;;;;10.35;100.00;100811.00;5045788;28;21277;-50
2023/08/31 04:13:59;;;;;;;26.65;18.45;;;;;;;10.34;100.00;100803.97;5054433;28;20040;-49
2023/08/31 04:16:24;;;;;;;20.98;18.20;;;;;;;10.31;100.00;100807.69;5056923;28;20023;-50
2023/08/31 04:18:51;;;;;;;19.23;17.20;;;;;;;10.31;100.00;100814.81;5052056;28;20372;-50
2023/08/31 04:21:17;;;;;;;17.60;15.85;;;;;;;10.30;100.00;100819.25;5059197;28;20375;-50
2023/08/31 04:23:42;;;;;;;19.65;16.40;;;;;;;10.31;100.00;100823.63;5057326;28;20167;-50
2023/08/31 04:26:14;;;;;;;17.65;15.57;;;;;;;10.32;100.00;100819.19;5049922;28;20085;-51
2023/08/31 04:28:41;;;;;;;18.30;14.50;;;;;;;10.31;100.00;100833.41;5038624;28;20025;-51
2023/08/31 04:31:07;;;;;;;16.95;14.50;;;;;;;10.32;100.00;100824.50;5050756;28;20029;-50
2023/08/31 04:33:37;;;;;;;15.25;13.77;;;;;;;10.29;100.00;100828.22;5045775;28;20036;-50
2023/08/31 04:36:04;;;;;;;16.70;13.90;;;;;;;10.29;100.00;100824.69;5053843;28;20516;-49
2023/08/31 04:38:30;;;;;;;15.02;12.82;;;;;;;10.27;100.00;100826.63;5053021;28;20017;-50
2023/08/31 04:40:58;;;;;;;15.38;12.68;;;;;;;10.27;100.00;100831.94;5058819;28;20040;-50
2023/08/31 04:43:24;;;;;;;16.57;13.10;;;;;;;10.27;100.00;100838.06;5044413;28;20044;-50
2023/08/31 04:45:51;;;;;;;13.23;11.93;;;;;;;10.24;100.00;100837.47;5048697;28;20033;-50
2023/08/31 04:48:17;;;;;;;12.98;11.68;;;;;;;10.25;100.00;100837.34;5041751;28;20083;-50
2023/08/31 04:50:42;;;;;;;15.95;12.57;;;;;;;10.24;100.00;100842.78;5044086;28;20026;-50
2023/08/31 04:53:07;;;;;;;11.77;10.55;;;;;;;10.24;100.00;100837.47;5052274;28;20033;-50
2023/08/31 04:55:33;;;;;;;14.55;10.55;;;;;;;10.24;100.00;100845.44;5042650;28;20068;-50
2023/08/31 04:57:58;;;;;;;12.90;10.38;;;;;;;10.24;100.00;100840.13;5049614;28;20033;-50
2023/08/31 05:00:23;;;;;;;13.25;9.90;;;;;;;10.23;100.00;100844.59;5049224;28;20022;-49
2023/08/31 05:02:49;;;;;;;12.68;9.82;;;;;;;10.22;100.00;100848.19;5051099;28;20152;-50
2023/08/31 05:05:14;;;;;;;12.10;9.52;;;;;;;10.19;100.00;100849.28;5057722;28;20152;-50
2023/08/31 05:07:39;;;;;;;11.95;9.25;;;;;;;10.19;100.00;100848.41;5054515;28;20025;-50
2023/08/31 05:10:06;;;;;;;10.90;8.82;;;;;;;10.19;100.00;100854.59;5061784;28;20490;-51
2023/08/31 05:12:31;;;;;;;11.63;9.68;;;;;;;10.18;100.00;100852.88;5054246;28;20383;-50
2023/08/31 05:14:56;;;;;;;10.65;8.85;;;;;;;10.20;100.00;100858.09;5060519;28;20058;-50
2023/08/31 05:17:21;;;;;;;11.18;8.80;;;;;;;10.21;100.00;100862.44;5053165;28;20064;-49
2023/08/31 05:19:47;;;;;;;11.32;9.05;;;;;;;10.22;100.00;100866.78;5062011;28;20023;-49
2023/08/31 05:22:12;;;;;;;10.73;8.27;;;;;;;10.21;100.00;100867.75;5051005;28;20029;-50
2023/08/31 05:24:38;;;;;;;12.75;9.35;;;;;;;10.21;100.00;100873.06;5057971;28;20079;-52
2023/08/31 05:27:03;;;;;;;9.05;8.13;;;;;;;10.23;100.00;100875.59;5046094;28;20051;-50
2023/08/31 05:29:29;;;;;;;10.20;8.32;;;;;;;10.24;100.00;100882.59;5047812;28;20037;-50
2023/08/31 05:31:55;;;;;;;9.48;7.63;;;;;;;10.23;100.00;100886.22;5053757;28;20048;-50
2023/08/31 05:34:24;;;;;;;9.55;8.00;;;;;;;10.23;100.00;100879.09;5045821;28;20033;-50
2023/08/31 05:36:50;;;;;;;10.07;7.72;;;;;;;10.24;100.00;100886.13;5052648;28;20111;-50
2023/08/31 05:39:16;;;;;;;10.32;7.93;;;;;;;10.26;100.00;100893.94;5049896;28;20029;-51
2023/08/31 05:41:42;;;;;;;10.18;7.55;;;;;;;10.25;100.00;100887.78;5054868;28;20455;-51
2023/08/31 05:44:08;;;;;;;9.18;7.22;;;;;;;10.24;100.00;100894.06;5044241;28;20047;-50
2023/08/31 05:46:33;;;;;;;8.55;7.47;;;;;;;10.26;100.00;100905.41;5041708;28;20072;-49
2023/08/31 05:48:59;;;;;;;8.35;7.40;;;;;;;10.28;100.00;100906.16;5047037;28;20105;-50
2023/08/31 05:51:24;;;;;;;13.65;8.18;;;;;;;10.30;100.00;100901.56;5041923;28;20026;-50
2023/08/31 05:53:50;;;;;;;11.30;7.60;;;;;;;10.32;100.00;100898.81;5047555;28;20100;-49
2023/08/31 05:56:15;;;;;;;14.43;8.25;;;;;;;10.36;100.00;100902.97;5042436;28;20029;-49
2023/08/31 05:58:40;;;;;;;11.50;7.95;;;;;;;10.40;100.00;100901.75;5048934;28;20541;-50
2023/08/31 06:01:07;;;;;;;12.65;8.43;;;;;;;10.40;100.00;100899.09;5047941;28;20029;-50
2023/08/31 06:03:33;;;;;;;9.05;7.53;;;;;;;10.45;100.00;100904.91;5042564;28;20430;-51
2023/08/31 06:05:59;;;;;;;11.85;8.05;;;;;;;10.50;100.00;100908.06;5046397;28;20032;-50
2023/08/31 06:08:25;;;;;;;9.60;8.05;;;;;;;10.54;100.00;100906.88;5047868;28;20037;-50
2023/08/31 06:10:50;;;;;;;12.55;8.32;;;;;;;10.58;100.00;100906.66;5048643;28;20048;-50
2023/08/31 06:13:16;;;;;;;12.45;9.20;;;;;;;10.63;100.00;100901.84;5043028;28;20068;-50
2023/08/31 06:15:42;;;;;;;9.93;7.90;;;;;;;10.68;100.00;100907.66;5059185;28;20394;-51
2023/08/31 06:18:07;;;;;;;12.68;8.48;;;;;;;10.73;100.00;100913.44;5047135;28;20036;-51
2023/08/31 06:20:32;;;;;;;12.25;8.65;;;;;;;10.79;100.00;100920.09;5056456;28;20063;-50
2023/08/31 06:22:59;;;;;;;9.68;8.13;;;;;;;10.83;100.00;100918.91;5045226;28;20029;-51
2023/08/31 06:25:24;;;;;;;11.77;8.18;;;;;;;10.85;100.00;100909.00;5049264;28;20450;-51
2023/08/31 06:27:50;;;;;;;10.35;7.85;;;;;;;10.93;100.00;100915.41;5042561;28;20060;-50
2023/08/31 06:30:16;;;;;;;10.60;8.43;;;;;;;11.00;100.00;100918.44;5045577;28;20500;-51
2023/08/31 06:32:46;;;;;;;10.27;8.43;;;;;;;11.06;100.00;100925.97;5047386;28;20041;-50
2023/08/31 06:35:12;;;;;;;13.15;8.65;;;;;;;11.13;100.00;100922.84;5042446;28;20035;-50
2023/08/31 06:37:39;;;;;;;10.65;8.70;;;;;;;11.20;100.00;100930.19;5052402;28;20032;-50
2023/08/31 06:40:08;;;;;;;12.52;8.63;;;;;;;11.25;100.00;100933.34;5051424;28;20082;-49
2023/08/31 06:42:33;;;;;;;13.50;8.48;;;;;;;11.33;100.00;100924.78;5056807;28;20101;-51
2023/08/31 06:44:58;;;;;;;12.52;8.40;;;;;;;11.40;100.00;100928.63;5049267;28;20025;-51
2023/08/31 06:47:24;;;;;;;13.07;9.18;;;;;;;11.47;100.00;100934.31;5057870;28;20032;-50
2023/08/31 06:49:49;;;;;;;9.95;8.20;;;;;;;11.56;100.00;100935.41;5050030;28;20032;-50
2023/08/31 06:52:15;;;;;;;12.30;8.93;;;;;;;11.63;100.00;100937.44;5048764;28;20409;-51
2023/08/31 06:54:41;;;;;;;11.73;8.07;;;;;;;11.71;100.00;100936.84;5050759;28;20071;-51
2023/08/31 06:57:07;;;;;;;12.20;8.43;;;;;;;11.79;100.00;100941.53;5048827;28;20044;-52
2023/08/31 06:59:32;;;;;;;12.70;9.05;;;;;;;11.91;100.00;100948.59;5044643;28;20037;-50
2023/08/31 07:01:57;;;;;;;15.98;8.70;;;;;;;12.03;100.00;100947.59;5046108;28;20021;-50
2023/08/31 07:04:23;;;;;;;11.85;9.38;;;;;;;12.14;100.00;100945.84;5049431;28;20021;-50
2023/08/31 07:06:48;;;;;;;15.43;9.05;;;;;;;12.30;100.00;100946.28;5046194;28;20024;-51
2023/08/31 07:09:13;;;;;;;10.80;8.18;;;;;;;12.46;100.00;100950.38;5046048;28;20391;-51
2023/08/31 07:11:39;;;;;;;16.70;8.98;;;;;;;12.70;100.00;100952.81;5046725;28;20032;-51
2023/08/31 07:14:04;;;;;;;13.50;8.80;;;;;;;12.87;100.00;100951.38;5046835;28;20385;-50
2023/08/31 07:16:29;;;;;;;13.40;8.90;;;;;;;13.08;100.00;100952.22;5044287;28;20029;-53
2023/08/31 07:18:55;;;;;;;14.05;8.13;;;;;;;13.30;100.00;100953.03;5046893;28;20133;-54
2023/08/31 07:21:20;;;;;;;11.18;7.50;;;;;;;13.46;100.00;100953.44;5043071;28;20021;-52
2023/08/31 07:23:45;;;;;;;11.13;7.72;;;;;;;13.69;100.00;100951.41;5035069;28;20159;-51
2023/08/31 07:26:11;;;;;;;11.15;7.72;;;;;;;13.92;100.00;100953.03;5044405;28;20466;-52
2023/08/31 07:28:36;;;;;;;9.93;6.82;;;;;;;14.16;100.00;100963.34;5044604;28;20037;-51
2023/08/31 07:31:06;;;;;;;11.57;6.60;;;;;;;14.36;100.00;100957.03;5047501;28;20053;-51
2023/08/31 07:33:32;;;;;;;10.65;7.03;;;;;;;14.61;100.00;100950.31;5050831;28;20059;-51
2023/08/31 07:35:58;;;;;;;11.75;6.72;;;;;;;14.88;100.00;100959.44;5039955;28;20372;-51
2023/08/31 07:38:24;;;;;;;9.57;6.45;;;;;;;15.11;100.00;100953.78;5051340;28;20406;-50
2023/08/31 07:40:49;;;;;;;9.85;6.43;;;;;;;15.32;100.00;100957.09;5044874;28;20033;-54
2023/08/31 07:43:15;;;;;;;12.18;5.70;;;;;;;15.54;100.00;100961.25;5052761;28;20041;-51
2023/08/31 07:45:40;;;;;;;14.70;6.50;;;;;;;15.75;100.00;100956.63;5043324;28;20029;-51
2023/08/31 07:48:06;;;;;;;10.38;5.88;;;;;;;15.95;100.00;100957.41;5047762;28;20122;-50
2023/08/31 07:50:32;;;;;;;8.77;5.95;;;;;;;16.15;100.00;100960.81;5027124;28;20417;-50
2023/08/31 07:52:57;;;;;;;8.27;5.43;;;;;;;16.36;100.00;100957.84;5044445;28;20063;-50
2023/08/31 07:55:22;;;;;;;7.68;5.50;;;;;;;16.55;100.00;100956.84;5046233;28;20032;-51
2023/08/31 07:57:48;;;;;;;11.50;5.80;;;;;;;16.71;100.00;100958.84;5051270;28;20028;-52
2023/08/31 08:00:14;;;;;;;6.30;5.13;;;;;;;16.96;99.65;100960.72;5050523;28;20021;-50
2023/08/31 08:02:40;;;;;;;10.10;5.22;;;;;;;17.20;97.73;100965.44;5046329;28;20097;-50
2023/08/31 08:05:06;;;;;;;8.98;5.25;;;;;;;17.35;96.36;100965.69;5051518;28;20120;-50
2023/08/31 08:07:31;;;;;;;8.77;4.88;;;;;;;17.48;95.56;100969.78;5047180;28;20024;-51
2023/08/31 08:09:56;;;;;;;10.57;5.13;;;;;;;17.65;95.24;100968.88;5054874;28;20034;-52
2023/08/31 08:12:22;;;;;;;9.70;4.72;;;;;;;17.88;95.23;100973.69;5053593;28;20021;-50
2023/08/31 08:14:47;;;;;;;9.38;4.50;;;;;;;17.99;94.00;100968.03;5050974;28;20094;-50
2023/08/31 08:17:12;;;;;;;7.28;4.75;;;;;;;18.18;92.68;100974.94;5043006;28;20025;-50
2023/08/31 08:19:38;;;;;;;8.50;4.95;;;;;;;18.42;90.80;100984.09;5043172;28;20456;-51
2023/08/31 08:22:03;;;;;;;9.73;4.82;;;;;;;18.48;90.02;100981.59;5046185;28;20308;-51
2023/08/31 08:24:29;;;;;;;8.75;4.53;;;;;;;18.64;90.16;100978.06;5045781;28;20440;-50
2023/08/31 08:26:54;;;;;;;8.20;4.50;;;;;;;18.89;89.27;100985.34;5045190;28;20082;-52
2023/08/31 08:29:19;;;;;;;8.18;4.43;;;;;;;19.06;86.79;100991.53;5036087;28;20028;-51
2023/08/31 08:31:45;;;;;;;8.65;4.50;;;;;;;19.27;86.06;100985.59;5038570;28;20113;-50
2023/08/31 08:34:10;;;;;;;9.35;5.10;;;;;;;19.42;85.41;100987.44;5047151;28;20035;-50
2023/08/31 08:36:35;;;;;;;8.70;4.70;;;;;;;19.62;84.02;100995.13;5042596;28;20063;-51
2023/08/31 08:39:01;;;;;;;7.78;4.60;;;;;;;19.88;83.82;100983.25;5038597;28;20029;-52
2023/08/31 08:41:29;;;;;;;9.88;4.57;;;;;;;20.07;81.78;100996.31;5035706;28;20017;-50
2023/08/31 08:43:57;;;;;;;7.78;4.40;;;;;;;20.14;79.54;100991.91;5034412;28;20040;-50
2023/08/31 08:46:23;;;;;;;8.73;4.47;;;;;;;20.35;80.16;100998.53;5041504;28;20055;-49
2023/08/31 08:48:49;;;;;;;8.32;4.80;;;;;;;20.50;77.49;100996.75;5036445;28;20013;-50
2023/08/31 08:51:15;;;;;;;9.00;4.18;;;;;;;20.67;79.48;100996.66;5031985;28;20079;-50
2023/08/31 08:53:42;;;;;;;8.07;4.25;;;;;;;20.83;77.27;100998.38;5035982;28;20188;-51
2023/08/31 08:56:08;;;;;;;10.77;4.28;;;;;;;21.00;77.46;101002.63;5036476;28;20103;-50
2023/08/31 08:58:33;;;;;;;6.32;4.13;;;;;;;21.03;75.87;101004.97;5031837;28;20033;-48
2023/08/31 09:00:58;;;;;;;8.05;4.20;;;;;;;21.13;76.96;101012.78;5035252;28;20100;-50
2023/08/31 09:03:24;;;;;;;8.68;4.00;;;;;;;21.13;74.69;101010.09;5035986;28;20029;-48
2023/08/31 09:05:52;;;;;;;6.30;3.90;;;;;;;21.21;75.12;101003.78;5043839;28;20142;-48
2023/08/31 09:08:25;;;;;;;6.03;3.80;;;;;;;21.32;75.16;101010.63;5044767;28;20021;-48
2023/08/31 09:10:51;;;;;;;6.35;3.67;;;;;;;21.33;73.38;101010.41;5039309;28;20098;-50
2023/08/31 09:13:17;;;;;;;9.15;4.15;;;;;;;21.35;73.65;101002.97;5043983;28;20018;-49
2023/08/31 09:15:48;;;;;;;7.22;3.30;;;;;;;21.50;74.08;101012.97;5039722;28;20494;-50
2023/08/31 09:18:25;;;;;;;8.98;3.47;;;;;;;21.55;73.56;101011.41;5040633;28;20033;-50
2023/08/31 09:20:51;;;;;;;7.07;3.17;;;;;;;21.66;71.94;101007.38;5038412;28;20049;-50
2023/08/31 09:23:17;;;;;;;8.45;3.58;;;;;;;21.82;70.56;101017.19;5034717;28;20055;-50
2023/08/31 09:25:44;;;;;;;6.55;3.28;;;;;;;21.83;69.67;101012.59;5038656;28;20064;-50
2023/08/31 09:28:12;;;;;;;5.63;3.20;;;;;;;21.93;68.94;101016.72;5041614;28;20057;-50
2023/08/31 09:30:37;;;;;;;4.65;3.20;;;;;;;22.18;67.39;101019.94;5042854;28;20064;-49
2023/08/31 09:33:23;;;;;;;7.75;3.58;;;;;;;22.45;71.53;101014.00;5048172;28;20033;-50
2023/08/31 09:35:54;;;;;;;6.93;3.60;;;;;;;22.46;67.52;101019.22;5039721;28;20064;-51
2023/08/31 09:38:19;;;;;;;7.45;3.65;;;;;;;22.48;65.81;101016.31;5045817;28;20029;-49
2023/08/31 09:40:45;;;;;;;8.70;3.40;;;;;;;22.45;65.73;101016.69;5040058;28;20071;-50
2023/08/31 09:43:10;;;;;;;5.75;3.28;;;;;;;22.67;66.67;101012.97;5042612;28;20057;-50
2023/08/31 09:45:38;;;;;;;9.23;3.17;;;;;;;22.75;67.62;101017.44;5045671;28;20025;-50
2023/08/31 09:48:04;;;;;;;8.30;3.92;;;;;;;22.97;65.76;101023.66;5045493;28;20040;-50
2023/08/31 09:50:34;;;;;;;8.40;3.58;;;;;;;22.94;63.69;101021.34;5048068;28;20018;-50
2023/08/31 09:53:03;;;;;;;7.20;3.03;;;;;;;23.09;63.49;101015.88;5052518;28;20024;-51
2023/08/31 09:55:30;;;;;;;7.00;3.30;;;;;;;22.90;63.05;101017.38;5043177;28;20029;-50
2023/08/31 09:58:01;;;;;;;7.40;3.25;;;;;;;22.82;61.19;101020.22;5040515;28;20029;-51
2023/08/31 10:00:28;;;;;;;6.72;3.22;;;;;;;22.93;59.79;101022.38;5036998;28;20021;-50
2023/08/31 10:02:56;;;;;;;7.88;2.95;;;;;;;23.15;60.76;101023.22;5040808;28;20501;-50
2023/08/31 10:05:22;;;;;;;5.90;3.03;;;;;;;23.04;62.46;101027.25;5048074;28;20025;-50
2023/08/31 10:07:50;;;;;;;6.47;2.92;;;;;;;22.98;62.19;101013.66;5052779;28;20447;-50
2023/08/31 10:10:16;;;;;;;6.90;2.85;;;;;;;23.08;58.34;101025.03;5043658;28;20035;-52
2023/08/31 10:12:44;;;;;;;5.22;2.47;;;;;;;23.34;58.07;101021.69;5049459;28;20479;-50
2023/08/31 10:15:10;;;;;;;5.72;2.40;;;;;;;23.42;60.21;101018.84;5043008;28;20052;-49
2023/08/31 10:17:36;;;;;;;5.40;2.63;;;;;;;23.34;58.21;101023.56;5040220;28;20068;-50
2023/08/31 10:20:02;;;;;;;5.70;2.60;;;;;;;23.30;57.62;101025.00;5047462;28;20025;-48
2023/08/31 10:22:29;;;;;;;4.22;2.10;;;;;;;23.22;56.07;101024.13;5047519;28;20028;-47
2023/08/31 10:25:03;;;;;;;6.82;2.60;;;;;;;22.88;55.47;101022.97;5048968;28;20076;-48
2023/08/31 10:27:35;;;;;;;5.43;2.33;;;;;;;22.59;56.31;101020.41;5040636;28;20495;-47
2023/08/31 10:30:32;;;;;;;6.22;3.10;;;;;;;22.51;59.00;101015.94;5044981;28;20029;-47
2023/08/31 10:33:07;;;;;;;5.93;2.80;;;;;;;22.69;60.00;101012.78;5041368;28;20049;-48
2023/08/31 10:35:49;;;;;;;6.45;2.17;;;;;;;22.71;60.13;101010.72;5045614;28;20115;-48
2023/08/31 10:38:15;;;;;;;5.90;2.30;;;;;;;22.69;59.00;101007.38;5047242;28;20044;-48
2023/08/31 10:40:41;;;;;;;6.90;2.50;;;;;;;22.83;57.03;101014.59;5045494;28;20032;-49
2023/08/31 10:43:16;;;;;;;5.65;2.42;;;;;;;22.94;59.22;100999.69;5040833;28;20038;-46
2023/08/31 10:45:45;;;;;;;6.78;2.65;;;;;;;23.05;56.38;101001.88;5053108;28;20037;-48
2023/08/31 10:48:10;;;;;;;;;;;;;;;23.28;58.88;100996.22;5039178;28;20053;-48
2023/08/31 10:50:41;;;;;;;3.90;2.00;;;;;;;23.00;54.40;100992.63;5044408;28;19917;-48
2023/08/31 10:53:11;;;;;;;7.68;2.47;;;;;;;23.03;53.40;100989.53;5044991;28;20256;-48
2023/08/31 10:55:52;;;;;;;3.88;2.00;;;;;;;23.21;53.74;100989.91;5049639;28;20029;-48
2023/08/31 10:58:18;;;;;;;5.18;2.13;;;;;;;23.28;52.52;100982.69;5050225;28;20049;-48
2023/08/31 11:00:51;;;;;;;5.57;2.20;;;;;;;23.41;54.45;100984.63;5040341;28;20040;-47
2023/08/31 11:03:17;;;;;;;7.05;2.33;;;;;;;23.51;54.41;100981.56;5044900;28;20024;-48
2023/08/31 11:05:52;;;;;;;6.47;2.08;;;;;;;23.41;53.21;100990.03;5033422;28;20032;-47
2023/08/31 11:08:24;;;;;;;5.70;2.03;;;;;;;23.23;52.09;100985.16;5045342;28;20541;-47
2023/08/31 11:10:50;;;;;;;4.32;1.88;;;;;;;23.13;52.31;100989.22;5040912;28;20368;-48
2023/08/31 11:13:18;;;;;;;4.63;1.90;;;;;;;23.00;53.61;100989.91;5041702;28;20064;-48